Аэропорт: Игнатьево. Благовещенск

ICAO: UHBB

METAR:
2021-01-20 02:30:00
UHBB 200230Z 17005MPS 8000 SCT033 M21/M25 Q1016 R18/410260 NOSIG RMK QFE746/0995
METAR:
2021-01-20 01:35:00
TAF UHBB 200135Z 2003/2103 15003G08MPS 5000 BR SCT030 BECMG 2004/2006 3100 -SN SCT011 BKN025 TEMPO 2006/2016 1100 SN BKN007 BKN020 FM201600 35003MPS CAVOK